sensor_id;sensor_type;location;lat;lon;timestamp;temperature;humidity
27506;DHT22;14939;43.596;1.320;2023-12-28T00:02:22;7.40;99.90
27506;DHT22;14939;43.596;1.320;2023-12-28T00:04:47;7.40;99.90
27506;DHT22;14939;43.596;1.320;2023-12-28T00:07:13;7.40;99.90
27506;DHT22;14939;43.596;1.320;2023-12-28T00:09:39;7.40;99.90
27506;DHT22;14939;43.596;1.320;2023-12-28T00:12:05;7.40;99.90
27506;DHT22;14939;43.596;1.320;2023-12-28T00:14:31;7.40;99.90
27506;DHT22;14939;43.596;1.320;2023-12-28T00:16:56;7.40;99.90
27506;DHT22;14939;43.596;1.320;2023-12-28T00:19:22;7.30;99.90
27506;DHT22;14939;43.596;1.320;2023-12-28T00:21:47;7.30;99.90
27506;DHT22;14939;43.596;1.320;2023-12-28T00:24:15;7.40;99.90
27506;DHT22;14939;43.596;1.320;2023-12-28T00:26:41;7.30;99.90
27506;DHT22;14939;43.596;1.320;2023-12-28T00:29:06;7.30;99.90
27506;DHT22;14939;43.596;1.320;2023-12-28T00:31:32;7.20;99.90
27506;DHT22;14939;43.596;1.320;2023-12-28T00:33:57;7.20;99.90
27506;DHT22;14939;43.596;1.320;2023-12-28T00:36:23;7.30;99.90
27506;DHT22;14939;43.596;1.320;2023-12-28T00:38:49;7.20;99.90
27506;DHT22;14939;43.596;1.320;2023-12-28T00:41:14;7.20;99.90
27506;DHT22;14939;43.596;1.320;2023-12-28T00:43:40;7.20;99.90
27506;DHT22;14939;43.596;1.320;2023-12-28T00:46:05;7.20;99.90
27506;DHT22;14939;43.596;1.320;2023-12-28T00:48:31;7.10;99.90
27506;DHT22;14939;43.596;1.320;2023-12-28T00:50:57;7.20;99.90
27506;DHT22;14939;43.596;1.320;2023-12-28T00:53:25;7.20;99.90
27506;DHT22;14939;43.596;1.320;2023-12-28T00:55:51;7.20;99.90
27506;DHT22;14939;43.596;1.320;2023-12-28T00:58:17;7.20;99.90
27506;DHT22;14939;43.596;1.320;2023-12-28T01:00:42;7.20;99.90
27506;DHT22;14939;43.596;1.320;2023-12-28T01:03:08;7.20;99.90
27506;DHT22;14939;43.596;1.320;2023-12-28T01:05:33;7.20;99.90
27506;DHT22;14939;43.596;1.320;2023-12-28T01:07:59;7.20;99.90
27506;DHT22;14939;43.596;1.320;2023-12-28T01:10:25;7.20;99.90
27506;DHT22;14939;43.596;1.320;2023-12-28T01:12:51;7.30;99.90
27506;DHT22;14939;43.596;1.320;2023-12-28T01:15:17;7.20;99.90
27506;DHT22;14939;43.596;1.320;2023-12-28T01:17:43;7.20;99.90
27506;DHT22;14939;43.596;1.320;2023-12-28T01:20:09;7.10;99.90
27506;DHT22;14939;43.596;1.320;2023-12-28T01:22:35;7.20;99.90
27506;DHT22;14939;43.596;1.320;2023-12-28T01:25:00;7.20;99.90
27506;DHT22;14939;43.596;1.320;2023-12-28T01:27:26;7.20;99.90
27506;DHT22;14939;43.596;1.320;2023-12-28T01:29:52;7.20;99.90
27506;DHT22;14939;43.596;1.320;2023-12-28T01:32:17;7.20;99.90
27506;DHT22;14939;43.596;1.320;2023-12-28T01:34:43;7.20;99.90
27506;DHT22;14939;43.596;1.320;2023-12-28T01:37:08;7.20;99.90
27506;DHT22;14939;43.596;1.320;2023-12-28T01:39:34;7.20;99.90
27506;DHT22;14939;43.596;1.320;2023-12-28T01:42:00;7.10;99.90
27506;DHT22;14939;43.596;1.320;2023-12-28T01:44:25;7.20;99.90
27506;DHT22;14939;43.596;1.320;2023-12-28T01:46:51;7.20;99.90
27506;DHT22;14939;43.596;1.320;2023-12-28T01:49:17;7.10;99.90
27506;DHT22;14939;43.596;1.320;2023-12-28T01:51:44;7.00;99.90
27506;DHT22;14939;43.596;1.320;2023-12-28T01:54:11;6.90;99.90
27506;DHT22;14939;43.596;1.320;2023-12-28T01:56:37;6.90;99.90
27506;DHT22;14939;43.596;1.320;2023-12-28T01:59:03;6.90;99.90
27506;DHT22;14939;43.596;1.320;2023-12-28T02:01:29;6.90;99.90
27506;DHT22;14939;43.596;1.320;2023-12-28T02:03:55;6.80;99.90
27506;DHT22;14939;43.596;1.320;2023-12-28T02:06:23;6.70;99.90
27506;DHT22;14939;43.596;1.320;2023-12-28T02:08:49;6.60;99.90
27506;DHT22;14939;43.596;1.320;2023-12-28T02:11:14;6.50;99.90
27506;DHT22;14939;43.596;1.320;2023-12-28T02:13:40;6.40;99.90
27506;DHT22;14939;43.596;1.320;2023-12-28T02:16:11;6.30;99.90
27506;DHT22;14939;43.596;1.320;2023-12-28T02:18:50;6.20;99.90
27506;DHT22;14939;43.596;1.320;2023-12-28T02:21:18;6.10;99.90
27506;DHT22;14939;43.596;1.320;2023-12-28T02:23:51;6.10;99.90
27506;DHT22;14939;43.596;1.320;2023-12-28T02:26:17;6.00;99.90
27506;DHT22;14939;43.596;1.320;2023-12-28T02:28:46;5.90;99.90
27506;DHT22;14939;43.596;1.320;2023-12-28T02:31:26;5.80;99.90
27506;DHT22;14939;43.596;1.320;2023-12-28T02:34:06;5.80;99.90
27506;DHT22;14939;43.596;1.320;2023-12-28T02:36:34;5.80;99.90
27506;DHT22;14939;43.596;1.320;2023-12-28T02:39:02;5.90;99.90
27506;DHT22;14939;43.596;1.320;2023-12-28T02:41:30;6.00;99.90
27506;DHT22;14939;43.596;1.320;2023-12-28T02:43:55;6.00;99.90
27506;DHT22;14939;43.596;1.320;2023-12-28T02:46:21;6.00;99.90
27506;DHT22;14939;43.596;1.320;2023-12-28T02:48:47;6.00;99.90
27506;DHT22;14939;43.596;1.320;2023-12-28T02:51:12;6.00;99.90
27506;DHT22;14939;43.596;1.320;2023-12-28T02:53:38;5.90;99.90
27506;DHT22;14939;43.596;1.320;2023-12-28T02:56:04;5.90;99.90
27506;DHT22;14939;43.596;1.320;2023-12-28T02:58:30;6.00;99.90
27506;DHT22;14939;43.596;1.320;2023-12-28T03:00:55;6.00;99.90
27506;DHT22;14939;43.596;1.320;2023-12-28T03:03:21;6.10;99.90
27506;DHT22;14939;43.596;1.320;2023-12-28T03:05:46;6.20;99.90
27506;DHT22;14939;43.596;1.320;2023-12-28T03:08:12;6.20;99.90
27506;DHT22;14939;43.596;1.320;2023-12-28T03:10:39;6.20;99.90
27506;DHT22;14939;43.596;1.320;2023-12-28T03:13:04;6.20;99.90
27506;DHT22;14939;43.596;1.320;2023-12-28T03:15:30;6.20;99.90
27506;DHT22;14939;43.596;1.320;2023-12-28T03:17:55;6.30;99.90
27506;DHT22;14939;43.596;1.320;2023-12-28T03:20:21;6.40;99.90
27506;DHT22;14939;43.596;1.320;2023-12-28T03:22:47;6.50;99.90
27506;DHT22;14939;43.596;1.320;2023-12-28T03:25:13;6.50;99.90
27506;DHT22;14939;43.596;1.320;2023-12-28T03:27:39;6.50;99.90
27506;DHT22;14939;43.596;1.320;2023-12-28T03:30:05;6.40;99.90
27506;DHT22;14939;43.596;1.320;2023-12-28T03:32:31;6.40;99.90
27506;DHT22;14939;43.596;1.320;2023-12-28T03:34:56;6.40;99.90
27506;DHT22;14939;43.596;1.320;2023-12-28T03:37:22;6.40;99.90
27506;DHT22;14939;43.596;1.320;2023-12-28T03:39:47;6.50;99.90
27506;DHT22;14939;43.596;1.320;2023-12-28T03:42:14;6.50;99.90
27506;DHT22;14939;43.596;1.320;2023-12-28T03:44:39;6.60;99.90
27506;DHT22;14939;43.596;1.320;2023-12-28T03:47:05;6.60;99.90
27506;DHT22;14939;43.596;1.320;2023-12-28T03:49:31;6.60;99.90
27506;DHT22;14939;43.596;1.320;2023-12-28T03:51:56;6.60;99.90
27506;DHT22;14939;43.596;1.320;2023-12-28T03:54:22;6.60;99.90
27506;DHT22;14939;43.596;1.320;2023-12-28T03:56:48;6.60;99.90
27506;DHT22;14939;43.596;1.320;2023-12-28T03:59:13;6.60;99.90
27506;DHT22;14939;43.596;1.320;2023-12-28T04:01:42;6.70;99.90
27506;DHT22;14939;43.596;1.320;2023-12-28T04:04:08;6.90;99.90
27506;DHT22;14939;43.596;1.320;2023-12-28T04:06:34;6.90;99.90
27506;DHT22;14939;43.596;1.320;2023-12-28T04:09:00;7.00;99.90
27506;DHT22;14939;43.596;1.320;2023-12-28T04:11:25;6.90;99.90
27506;DHT22;14939;43.596;1.320;2023-12-28T04:13:51;7.00;99.90
27506;DHT22;14939;43.596;1.320;2023-12-28T04:16:17;7.00;99.90
27506;DHT22;14939;43.596;1.320;2023-12-28T04:18:43;7.00;99.90
27506;DHT22;14939;43.596;1.320;2023-12-28T04:21:12;7.00;99.90
27506;DHT22;14939;43.596;1.320;2023-12-28T04:23:39;7.10;99.90
27506;DHT22;14939;43.596;1.320;2023-12-28T04:26:05;7.00;99.90
27506;DHT22;14939;43.596;1.320;2023-12-28T04:28:30;7.00;99.90
27506;DHT22;14939;43.596;1.320;2023-12-28T04:30:56;7.00;99.90
27506;DHT22;14939;43.596;1.320;2023-12-28T04:33:22;7.00;99.90
27506;DHT22;14939;43.596;1.320;2023-12-28T04:35:48;7.00;99.90
27506;DHT22;14939;43.596;1.320;2023-12-28T04:38:13;7.10;99.90
27506;DHT22;14939;43.596;1.320;2023-12-28T04:40:39;7.10;99.90
27506;DHT22;14939;43.596;1.320;2023-12-28T04:43:05;7.20;99.90
27506;DHT22;14939;43.596;1.320;2023-12-28T04:45:31;7.20;99.90
27506;DHT22;14939;43.596;1.320;2023-12-28T04:47:56;7.30;99.90
27506;DHT22;14939;43.596;1.320;2023-12-28T04:50:22;7.30;99.90
27506;DHT22;14939;43.596;1.320;2023-12-28T04:52:47;7.30;99.90
27506;DHT22;14939;43.596;1.320;2023-12-28T04:55:13;7.30;99.90
27506;DHT22;14939;43.596;1.320;2023-12-28T04:57:41;7.30;99.90
27506;DHT22;14939;43.596;1.320;2023-12-28T05:00:07;7.30;99.90
27506;DHT22;14939;43.596;1.320;2023-12-28T05:02:34;7.30;99.90
27506;DHT22;14939;43.596;1.320;2023-12-28T05:04:59;7.30;99.90
27506;DHT22;14939;43.596;1.320;2023-12-28T05:07:25;7.40;99.90
27506;DHT22;14939;43.596;1.320;2023-12-28T05:09:51;7.40;99.90
27506;DHT22;14939;43.596;1.320;2023-12-28T05:12:16;7.50;99.90
27506;DHT22;14939;43.596;1.320;2023-12-28T05:14:42;7.50;99.90
27506;DHT22;14939;43.596;1.320;2023-12-28T05:17:08;7.50;99.90
27506;DHT22;14939;43.596;1.320;2023-12-28T05:19:33;7.60;99.90
27506;DHT22;14939;43.596;1.320;2023-12-28T05:21:59;7.60;99.90
27506;DHT22;14939;43.596;1.320;2023-12-28T05:24:28;7.70;99.90
27506;DHT22;14939;43.596;1.320;2023-12-28T05:26:54;7.80;99.90
27506;DHT22;14939;43.596;1.320;2023-12-28T05:29:19;7.80;99.90
27506;DHT22;14939;43.596;1.320;2023-12-28T05:31:45;7.90;99.90
27506;DHT22;14939;43.596;1.320;2023-12-28T05:34:10;7.90;99.90
27506;DHT22;14939;43.596;1.320;2023-12-28T05:36:36;7.90;99.90
27506;DHT22;14939;43.596;1.320;2023-12-28T05:39:02;7.90;99.90
27506;DHT22;14939;43.596;1.320;2023-12-28T05:41:28;8.00;99.90
27506;DHT22;14939;43.596;1.320;2023-12-28T05:43:53;8.00;99.90
27506;DHT22;14939;43.596;1.320;2023-12-28T05:46:19;8.00;99.90
27506;DHT22;14939;43.596;1.320;2023-12-28T05:48:44;8.10;99.90
27506;DHT22;14939;43.596;1.320;2023-12-28T05:51:10;8.10;99.90
27506;DHT22;14939;43.596;1.320;2023-12-28T05:53:36;8.10;99.90
27506;DHT22;14939;43.596;1.320;2023-12-28T05:56:01;8.10;99.90
27506;DHT22;14939;43.596;1.320;2023-12-28T05:58:29;8.10;99.90
27506;DHT22;14939;43.596;1.320;2023-12-28T06:00:55;8.10;99.90
27506;DHT22;14939;43.596;1.320;2023-12-28T06:03:20;8.20;99.90
27506;DHT22;14939;43.596;1.320;2023-12-28T06:05:46;8.20;99.90
27506;DHT22;14939;43.596;1.320;2023-12-28T06:08:12;8.20;99.90
27506;DHT22;14939;43.596;1.320;2023-12-28T06:10:38;8.20;99.90
27506;DHT22;14939;43.596;1.320;2023-12-28T06:13:04;8.20;99.90
27506;DHT22;14939;43.596;1.320;2023-12-28T06:15:30;8.20;99.90
27506;DHT22;14939;43.596;1.320;2023-12-28T06:17:55;8.20;99.90
27506;DHT22;14939;43.596;1.320;2023-12-28T06:20:21;8.20;99.90
27506;DHT22;14939;43.596;1.320;2023-12-28T06:22:47;8.20;99.90
27506;DHT22;14939;43.596;1.320;2023-12-28T06:25:14;8.30;99.90
27506;DHT22;14939;43.596;1.320;2023-12-28T06:27:40;8.30;99.90
27506;DHT22;14939;43.596;1.320;2023-12-28T06:30:06;8.40;99.90
27506;DHT22;14939;43.596;1.320;2023-12-28T06:32:31;8.40;99.90
27506;DHT22;14939;43.596;1.320;2023-12-28T06:34:57;8.50;99.90
27506;DHT22;14939;43.596;1.320;2023-12-28T06:37:23;8.50;99.90
27506;DHT22;14939;43.596;1.320;2023-12-28T06:39:48;8.50;99.90
27506;DHT22;14939;43.596;1.320;2023-12-28T06:42:14;8.50;99.90
27506;DHT22;14939;43.596;1.320;2023-12-28T06:44:40;8.50;99.90
27506;DHT22;14939;43.596;1.320;2023-12-28T06:47:06;8.50;99.90
27506;DHT22;14939;43.596;1.320;2023-12-28T06:49:31;8.50;99.90
27506;DHT22;14939;43.596;1.320;2023-12-28T06:51:57;8.60;99.90
27506;DHT22;14939;43.596;1.320;2023-12-28T06:54:23;8.70;99.90
27506;DHT22;14939;43.596;1.320;2023-12-28T06:56:49;8.70;99.90
27506;DHT22;14939;43.596;1.320;2023-12-28T06:59:16;8.70;99.90
27506;DHT22;14939;43.596;1.320;2023-12-28T07:01:42;8.70;99.90
27506;DHT22;14939;43.596;1.320;2023-12-28T07:04:09;8.70;99.90
27506;DHT22;14939;43.596;1.320;2023-12-28T07:06:35;8.70;99.90
27506;DHT22;14939;43.596;1.320;2023-12-28T07:09:00;8.70;99.90
27506;DHT22;14939;43.596;1.320;2023-12-28T07:11:26;8.70;99.90
27506;DHT22;14939;43.596;1.320;2023-12-28T07:13:52;8.70;99.90
27506;DHT22;14939;43.596;1.320;2023-12-28T07:16:18;8.70;99.90
27506;DHT22;14939;43.596;1.320;2023-12-28T07:18:44;8.70;99.90
27506;DHT22;14939;43.596;1.320;2023-12-28T07:21:09;8.70;99.90
27506;DHT22;14939;43.596;1.320;2023-12-28T07:23:36;8.80;99.90
27506;DHT22;14939;43.596;1.320;2023-12-28T07:26:02;8.80;99.90
27506;DHT22;14939;43.596;1.320;2023-12-28T07:28:27;8.90;99.90
27506;DHT22;14939;43.596;1.320;2023-12-28T07:30:53;8.90;99.90
27506;DHT22;14939;43.596;1.320;2023-12-28T07:33:20;8.90;99.90
27506;DHT22;14939;43.596;1.320;2023-12-28T07:35:45;8.90;99.90
27506;DHT22;14939;43.596;1.320;2023-12-28T07:38:11;8.90;99.90
27506;DHT22;14939;43.596;1.320;2023-12-28T07:40:37;8.90;99.90
27506;DHT22;14939;43.596;1.320;2023-12-28T07:43:03;8.90;99.90
27506;DHT22;14939;43.596;1.320;2023-12-28T07:45:29;9.00;99.90
27506;DHT22;14939;43.596;1.320;2023-12-28T07:47:55;8.90;99.90
27506;DHT22;14939;43.596;1.320;2023-12-28T07:50:20;8.90;99.90
27506;DHT22;14939;43.596;1.320;2023-12-28T07:52:47;9.00;99.90
27506;DHT22;14939;43.596;1.320;2023-12-28T07:55:13;9.00;99.90
27506;DHT22;14939;43.596;1.320;2023-12-28T07:57:39;9.00;99.90
27506;DHT22;14939;43.596;1.320;2023-12-28T08:00:06;9.00;99.90
27506;DHT22;14939;43.596;1.320;2023-12-28T08:02:32;9.00;99.90
27506;DHT22;14939;43.596;1.320;2023-12-28T08:04:58;9.00;99.90
27506;DHT22;14939;43.596;1.320;2023-12-28T08:07:24;9.00;99.90
27506;DHT22;14939;43.596;1.320;2023-12-28T08:09:49;9.10;99.90
27506;DHT22;14939;43.596;1.320;2023-12-28T08:12:15;9.10;99.90
27506;DHT22;14939;43.596;1.320;2023-12-28T08:14:43;9.10;99.90
27506;DHT22;14939;43.596;1.320;2023-12-28T08:17:09;9.10;99.90
27506;DHT22;14939;43.596;1.320;2023-12-28T08:19:35;9.20;99.90
27506;DHT22;14939;43.596;1.320;2023-12-28T08:22:01;9.20;99.90
27506;DHT22;14939;43.596;1.320;2023-12-28T08:24:28;9.30;99.90
27506;DHT22;14939;43.596;1.320;2023-12-28T08:26:53;9.40;99.90
27506;DHT22;14939;43.596;1.320;2023-12-28T08:29:23;9.40;99.90
27506;DHT22;14939;43.596;1.320;2023-12-28T08:31:49;9.40;99.90
27506;DHT22;14939;43.596;1.320;2023-12-28T08:34:14;9.50;99.90
27506;DHT22;14939;43.596;1.320;2023-12-28T08:36:40;9.50;99.90
27506;DHT22;14939;43.596;1.320;2023-12-28T08:39:07;9.50;99.90
27506;DHT22;14939;43.596;1.320;2023-12-28T08:41:32;9.50;99.90
27506;DHT22;14939;43.596;1.320;2023-12-28T08:43:58;9.50;99.90
27506;DHT22;14939;43.596;1.320;2023-12-28T08:46:23;9.50;99.90
27506;DHT22;14939;43.596;1.320;2023-12-28T08:48:52;9.50;99.90
27506;DHT22;14939;43.596;1.320;2023-12-28T08:51:18;9.60;99.90
27506;DHT22;14939;43.596;1.320;2023-12-28T08:53:44;9.60;99.90
27506;DHT22;14939;43.596;1.320;2023-12-28T08:56:22;9.70;99.90
27506;DHT22;14939;43.596;1.320;2023-12-28T08:58:49;9.80;99.90
27506;DHT22;14939;43.596;1.320;2023-12-28T09:01:23;9.80;99.90
27506;DHT22;14939;43.596;1.320;2023-12-28T09:03:53;9.90;99.90
27506;DHT22;14939;43.596;1.320;2023-12-28T09:06:19;9.90;99.90
27506;DHT22;14939;43.596;1.320;2023-12-28T09:08:48;9.90;99.90
27506;DHT22;14939;43.596;1.320;2023-12-28T09:11:14;10.00;99.90
27506;DHT22;14939;43.596;1.320;2023-12-28T09:13:40;10.00;99.90
27506;DHT22;14939;43.596;1.320;2023-12-28T09:16:09;10.00;99.90
27506;DHT22;14939;43.596;1.320;2023-12-28T09:18:35;10.00;99.90
27506;DHT22;14939;43.596;1.320;2023-12-28T09:21:03;10.10;99.90
27506;DHT22;14939;43.596;1.320;2023-12-28T09:23:29;10.10;99.90
27506;DHT22;14939;43.596;1.320;2023-12-28T09:25:54;10.10;99.90
27506;DHT22;14939;43.596;1.320;2023-12-28T09:28:20;10.10;99.90
27506;DHT22;14939;43.596;1.320;2023-12-28T09:30:46;10.20;99.90
27506;DHT22;14939;43.596;1.320;2023-12-28T09:33:11;10.20;99.90
27506;DHT22;14939;43.596;1.320;2023-12-28T09:35:37;10.20;99.90
27506;DHT22;14939;43.596;1.320;2023-12-28T09:38:03;10.30;99.90
27506;DHT22;14939;43.596;1.320;2023-12-28T09:40:28;10.30;99.90
27506;DHT22;14939;43.596;1.320;2023-12-28T09:43:15;10.30;99.90
27506;DHT22;14939;43.596;1.320;2023-12-28T09:45:47;10.40;99.90
27506;DHT22;14939;43.596;1.320;2023-12-28T09:48:17;10.50;99.90
27506;DHT22;14939;43.596;1.320;2023-12-28T09:50:53;10.50;99.90
27506;DHT22;14939;43.596;1.320;2023-12-28T09:53:23;10.60;99.90
27506;DHT22;14939;43.596;1.320;2023-12-28T09:55:49;10.60;99.90
27506;DHT22;14939;43.596;1.320;2023-12-28T09:58:17;10.60;99.90
27506;DHT22;14939;43.596;1.320;2023-12-28T10:00:45;10.70;99.90
27506;DHT22;14939;43.596;1.320;2023-12-28T10:03:13;10.70;99.90
27506;DHT22;14939;43.596;1.320;2023-12-28T10:05:41;10.80;99.90
27506;DHT22;14939;43.596;1.320;2023-12-28T10:08:07;10.80;99.90
27506;DHT22;14939;43.596;1.320;2023-12-28T10:10:33;10.90;99.90
27506;DHT22;14939;43.596;1.320;2023-12-28T10:13:00;10.90;99.90
27506;DHT22;14939;43.596;1.320;2023-12-28T10:15:25;10.90;99.90
27506;DHT22;14939;43.596;1.320;2023-12-28T10:17:54;11.00;99.90
27506;DHT22;14939;43.596;1.320;2023-12-28T10:20:19;11.10;99.90
27506;DHT22;14939;43.596;1.320;2023-12-28T10:22:46;11.10;99.90
27506;DHT22;14939;43.596;1.320;2023-12-28T10:25:12;11.10;99.90
27506;DHT22;14939;43.596;1.320;2023-12-28T10:27:42;11.20;99.90
27506;DHT22;14939;43.596;1.320;2023-12-28T10:30:08;11.20;99.90
27506;DHT22;14939;43.596;1.320;2023-12-28T10:32:35;11.20;99.90
27506;DHT22;14939;43.596;1.320;2023-12-28T10:35:01;11.30;99.90
27506;DHT22;14939;43.596;1.320;2023-12-28T10:37:27;11.30;99.90
27506;DHT22;14939;43.596;1.320;2023-12-28T10:39:57;11.30;99.90
27506;DHT22;14939;43.596;1.320;2023-12-28T10:42:40;11.40;99.90
27506;DHT22;14939;43.596;1.320;2023-12-28T10:45:10;11.40;99.90
27506;DHT22;14939;43.596;1.320;2023-12-28T10:47:43;11.50;99.90
27506;DHT22;14939;43.596;1.320;2023-12-28T10:50:10;11.50;99.90
27506;DHT22;14939;43.596;1.320;2023-12-28T10:52:39;11.40;99.90
27506;DHT22;14939;43.596;1.320;2023-12-28T10:57:47;11.50;99.90
27506;DHT22;14939;43.596;1.320;2023-12-28T11:00:36;11.50;99.90
27506;DHT22;14939;43.596;1.320;2023-12-28T11:03:09;11.60;99.90
27506;DHT22;14939;43.596;1.320;2023-12-28T11:05:37;11.60;99.90
27506;DHT22;14939;43.596;1.320;2023-12-28T11:08:06;11.60;99.90
27506;DHT22;14939;43.596;1.320;2023-12-28T11:10:33;11.70;99.90
27506;DHT22;14939;43.596;1.320;2023-12-28T11:13:00;11.70;99.90
27506;DHT22;14939;43.596;1.320;2023-12-28T11:15:26;11.80;99.90
27506;DHT22;14939;43.596;1.320;2023-12-28T11:17:53;11.80;99.90
27506;DHT22;14939;43.596;1.320;2023-12-28T11:20:19;11.90;99.90
27506;DHT22;14939;43.596;1.320;2023-12-28T11:22:45;12.00;99.90
27506;DHT22;14939;43.596;1.320;2023-12-28T11:25:18;12.00;99.90
27506;DHT22;14939;43.596;1.320;2023-12-28T11:27:45;12.00;99.90
27506;DHT22;14939;43.596;1.320;2023-12-28T11:30:12;12.00;99.90
27506;DHT22;14939;43.596;1.320;2023-12-28T11:32:42;12.00;99.90
27506;DHT22;14939;43.596;1.320;2023-12-28T11:35:11;12.10;99.90
27506;DHT22;14939;43.596;1.320;2023-12-28T11:37:38;12.10;99.90
27506;DHT22;14939;43.596;1.320;2023-12-28T11:40:16;12.10;99.90
27506;DHT22;14939;43.596;1.320;2023-12-28T11:42:52;12.10;99.90
27506;DHT22;14939;43.596;1.320;2023-12-28T11:45:19;12.10;99.90
27506;DHT22;14939;43.596;1.320;2023-12-28T11:47:45;12.10;99.90
27506;DHT22;14939;43.596;1.320;2023-12-28T11:50:11;12.20;99.90
27506;DHT22;14939;43.596;1.320;2023-12-28T11:52:38;12.20;99.90
27506;DHT22;14939;43.596;1.320;2023-12-28T11:55:04;12.20;99.90
27506;DHT22;14939;43.596;1.320;2023-12-28T11:57:30;12.30;99.90
27506;DHT22;14939;43.596;1.320;2023-12-28T11:59:57;12.30;99.90
27506;DHT22;14939;43.596;1.320;2023-12-28T12:02:24;12.30;99.90
27506;DHT22;14939;43.596;1.320;2023-12-28T12:04:50;12.40;99.90
27506;DHT22;14939;43.596;1.320;2023-12-28T12:07:16;12.30;99.90
27506;DHT22;14939;43.596;1.320;2023-12-28T12:09:42;12.30;99.90
27506;DHT22;14939;43.596;1.320;2023-12-28T12:12:08;12.30;99.90
27506;DHT22;14939;43.596;1.320;2023-12-28T12:14:34;12.30;99.90
27506;DHT22;14939;43.596;1.320;2023-12-28T12:17:00;12.30;99.90
27506;DHT22;14939;43.596;1.320;2023-12-28T12:19:26;12.30;99.90
27506;DHT22;14939;43.596;1.320;2023-12-28T12:21:56;12.30;99.90
27506;DHT22;14939;43.596;1.320;2023-12-28T12:24:22;12.40;99.90
27506;DHT22;14939;43.596;1.320;2023-12-28T12:26:52;12.40;99.90
27506;DHT22;14939;43.596;1.320;2023-12-28T12:29:18;12.40;99.90
27506;DHT22;14939;43.596;1.320;2023-12-28T12:31:46;12.40;99.90
27506;DHT22;14939;43.596;1.320;2023-12-28T12:34:12;12.30;99.90
27506;DHT22;14939;43.596;1.320;2023-12-28T12:36:38;12.30;99.90
27506;DHT22;14939;43.596;1.320;2023-12-28T12:39:04;12.30;99.90
27506;DHT22;14939;43.596;1.320;2023-12-28T12:41:34;12.30;99.90
27506;DHT22;14939;43.596;1.320;2023-12-28T12:44:00;12.20;99.90
27506;DHT22;14939;43.596;1.320;2023-12-28T12:46:26;12.20;99.90
27506;DHT22;14939;43.596;1.320;2023-12-28T12:48:59;12.20;99.90
27506;DHT22;14939;43.596;1.320;2023-12-28T12:51:27;12.10;99.90
27506;DHT22;14939;43.596;1.320;2023-12-28T12:53:59;12.10;99.90
27506;DHT22;14939;43.596;1.320;2023-12-28T12:56:28;12.00;99.90
27506;DHT22;14939;43.596;1.320;2023-12-28T12:58:54;12.00;99.90
27506;DHT22;14939;43.596;1.320;2023-12-28T13:01:20;12.10;99.90
27506;DHT22;14939;43.596;1.320;2023-12-28T13:03:46;12.10;99.90
27506;DHT22;14939;43.596;1.320;2023-12-28T13:06:12;12.10;99.90
27506;DHT22;14939;43.596;1.320;2023-12-28T13:08:38;12.10;99.90
27506;DHT22;14939;43.596;1.320;2023-12-28T13:11:05;12.10;99.90
27506;DHT22;14939;43.596;1.320;2023-12-28T13:13:34;12.10;99.90
27506;DHT22;14939;43.596;1.320;2023-12-28T13:16:00;12.10;99.90
27506;DHT22;14939;43.596;1.320;2023-12-28T13:18:26;12.10;99.90
27506;DHT22;14939;43.596;1.320;2023-12-28T13:20:52;12.10;99.90
27506;DHT22;14939;43.596;1.320;2023-12-28T13:23:17;12.10;99.90
27506;DHT22;14939;43.596;1.320;2023-12-28T13:25:43;12.20;99.90
27506;DHT22;14939;43.596;1.320;2023-12-28T13:28:10;12.20;99.90
27506;DHT22;14939;43.596;1.320;2023-12-28T13:30:35;12.20;99.90
27506;DHT22;14939;43.596;1.320;2023-12-28T13:33:03;12.20;99.90
27506;DHT22;14939;43.596;1.320;2023-12-28T13:35:28;12.20;99.90
27506;DHT22;14939;43.596;1.320;2023-12-28T13:37:54;12.20;99.90
27506;DHT22;14939;43.596;1.320;2023-12-28T13:40:20;12.20;99.90
27506;DHT22;14939;43.596;1.320;2023-12-28T13:42:46;12.20;99.90
27506;DHT22;14939;43.596;1.320;2023-12-28T13:45:12;12.20;99.90
27506;DHT22;14939;43.596;1.320;2023-12-28T13:47:37;12.20;99.90
27506;DHT22;14939;43.596;1.320;2023-12-28T13:50:04;12.20;99.90
27506;DHT22;14939;43.596;1.320;2023-12-28T13:52:29;12.20;99.90
27506;DHT22;14939;43.596;1.320;2023-12-28T13:54:55;12.20;99.90
27506;DHT22;14939;43.596;1.320;2023-12-28T13:57:21;12.20;99.90
27506;DHT22;14939;43.596;1.320;2023-12-28T13:59:46;12.10;99.90
27506;DHT22;14939;43.596;1.320;2023-12-28T14:02:12;12.10;99.90
27506;DHT22;14939;43.596;1.320;2023-12-28T14:04:38;12.20;99.90
27506;DHT22;14939;43.596;1.320;2023-12-28T14:07:03;12.20;99.90
27506;DHT22;14939;43.596;1.320;2023-12-28T14:09:29;12.20;99.90
27506;DHT22;14939;43.596;1.320;2023-12-28T14:11:56;12.20;99.90
27506;DHT22;14939;43.596;1.320;2023-12-28T14:14:21;12.10;99.90
27506;DHT22;14939;43.596;1.320;2023-12-28T14:16:47;12.10;99.90
27506;DHT22;14939;43.596;1.320;2023-12-28T14:19:13;12.10;99.90
27506;DHT22;14939;43.596;1.320;2023-12-28T14:21:39;12.20;99.90
27506;DHT22;14939;43.596;1.320;2023-12-28T14:24:05;12.10;99.90
27506;DHT22;14939;43.596;1.320;2023-12-28T14:26:34;12.10;99.90
27506;DHT22;14939;43.596;1.320;2023-12-28T14:29:00;12.00;99.90
27506;DHT22;14939;43.596;1.320;2023-12-28T14:31:31;12.00;99.90
27506;DHT22;14939;43.596;1.320;2023-12-28T14:33:56;12.00;99.90
27506;DHT22;14939;43.596;1.320;2023-12-28T14:36:36;11.90;99.90
27506;DHT22;14939;43.596;1.320;2023-12-28T14:39:04;11.90;99.90
27506;DHT22;14939;43.596;1.320;2023-12-28T14:41:31;11.90;99.90
27506;DHT22;14939;43.596;1.320;2023-12-28T14:43:57;11.90;99.90
27506;DHT22;14939;43.596;1.320;2023-12-28T14:46:24;11.90;99.90
27506;DHT22;14939;43.596;1.320;2023-12-28T14:48:50;11.90;99.90
27506;DHT22;14939;43.596;1.320;2023-12-28T14:51:15;11.90;99.90
27506;DHT22;14939;43.596;1.320;2023-12-28T14:53:41;11.80;99.90
27506;DHT22;14939;43.596;1.320;2023-12-28T14:56:06;11.80;99.90
27506;DHT22;14939;43.596;1.320;2023-12-28T14:58:32;11.80;99.90
27506;DHT22;14939;43.596;1.320;2023-12-28T15:00:58;11.80;99.90
27506;DHT22;14939;43.596;1.320;2023-12-28T15:03:23;11.70;99.90
27506;DHT22;14939;43.596;1.320;2023-12-28T15:05:50;11.70;99.90
27506;DHT22;14939;43.596;1.320;2023-12-28T15:08:15;11.70;99.90
27506;DHT22;14939;43.596;1.320;2023-12-28T15:10:41;11.60;99.90
27506;DHT22;14939;43.596;1.320;2023-12-28T15:13:07;11.60;99.90
27506;DHT22;14939;43.596;1.320;2023-12-28T15:15:33;11.50;99.90
27506;DHT22;14939;43.596;1.320;2023-12-28T15:17:59;11.50;99.90
27506;DHT22;14939;43.596;1.320;2023-12-28T15:20:25;11.50;99.90
27506;DHT22;14939;43.596;1.320;2023-12-28T15:22:52;11.60;99.90
27506;DHT22;14939;43.596;1.320;2023-12-28T15:25:18;11.60;99.90
27506;DHT22;14939;43.596;1.320;2023-12-28T15:27:44;11.50;99.90
27506;DHT22;14939;43.596;1.320;2023-12-28T15:30:10;11.40;99.90
27506;DHT22;14939;43.596;1.320;2023-12-28T15:32:38;11.40;99.90
27506;DHT22;14939;43.596;1.320;2023-12-28T15:35:05;11.30;99.90
27506;DHT22;14939;43.596;1.320;2023-12-28T15:37:32;11.20;99.90
27506;DHT22;14939;43.596;1.320;2023-12-28T15:39:58;11.20;99.90